sensor_id;sensor_type;location;lat;lon;timestamp;P1;durP1;ratioP1;P2;durP2;ratioP2
35364;SDS011;21464;48.112;11.530;2022-12-29T00:02:09;1.80;;;1.63;;
35364;SDS011;21464;48.112;11.530;2022-12-29T00:04:35;1.53;;;1.40;;
35364;SDS011;21464;48.112;11.530;2022-12-29T00:07:01;1.20;;;1.20;;
35364;SDS011;21464;48.112;11.530;2022-12-29T00:09:30;1.43;;;1.33;;
35364;SDS011;21464;48.112;11.530;2022-12-29T00:11:56;1.40;;;1.30;;
35364;SDS011;21464;48.112;11.530;2022-12-29T00:14:22;1.30;;;1.20;;
35364;SDS011;21464;48.112;11.530;2022-12-29T00:17:07;1.20;;;1.10;;
35364;SDS011;21464;48.112;11.530;2022-12-29T00:19:33;1.50;;;1.40;;
35364;SDS011;21464;48.112;11.530;2022-12-29T00:22:18;1.37;;;1.30;;
35364;SDS011;21464;48.112;11.530;2022-12-29T00:25:02;1.40;;;1.30;;
35364;SDS011;21464;48.112;11.530;2022-12-29T00:27:34;1.60;;;1.50;;
35364;SDS011;21464;48.112;11.530;2022-12-29T00:30:20;1.37;;;1.30;;
35364;SDS011;21464;48.112;11.530;2022-12-29T00:33:11;1.30;;;1.20;;
35364;SDS011;21464;48.112;11.530;2022-12-29T00:36:00;1.10;;;1.10;;
35364;SDS011;21464;48.112;11.530;2022-12-29T00:38:29;1.37;;;1.27;;
35364;SDS011;21464;48.112;11.530;2022-12-29T00:41:14;1.13;;;1.13;;
35364;SDS011;21464;48.112;11.530;2022-12-29T00:44:00;1.33;;;1.23;;
35364;SDS011;21464;48.112;11.530;2022-12-29T00:46:33;1.57;;;1.30;;
35364;SDS011;21464;48.112;11.530;2022-12-29T00:48:59;1.07;;;0.97;;
35364;SDS011;21464;48.112;11.530;2022-12-29T00:51:44;1.20;;;1.10;;
35364;SDS011;21464;48.112;11.530;2022-12-29T00:54:10;1.30;;;1.20;;
35364;SDS011;21464;48.112;11.530;2022-12-29T00:56:36;1.40;;;1.30;;
35364;SDS011;21464;48.112;11.530;2022-12-29T00:59:02;3.17;;;1.20;;
35364;SDS011;21464;48.112;11.530;2022-12-29T01:01:29;1.40;;;1.30;;
35364;SDS011;21464;48.112;11.530;2022-12-29T01:03:56;1.23;;;1.20;;
35364;SDS011;21464;48.112;11.530;2022-12-29T01:06:22;1.20;;;1.20;;
35364;SDS011;21464;48.112;11.530;2022-12-29T01:08:48;1.20;;;1.20;;
35364;SDS011;21464;48.112;11.530;2022-12-29T01:11:34;1.37;;;1.00;;
35364;SDS011;21464;48.112;11.530;2022-12-29T01:14:00;1.10;;;1.10;;
35364;SDS011;21464;48.112;11.530;2022-12-29T01:16:26;4.57;;;2.80;;
35364;SDS011;21464;48.112;11.530;2022-12-29T01:18:51;7.47;;;4.40;;
35364;SDS011;21464;48.112;11.530;2022-12-29T01:21:17;2.17;;;1.97;;
35364;SDS011;21464;48.112;11.530;2022-12-29T01:23:43;4.87;;;3.17;;
35364;SDS011;21464;48.112;11.530;2022-12-29T01:26:10;2.50;;;2.30;;
35364;SDS011;21464;48.112;11.530;2022-12-29T01:28:36;1.70;;;1.30;;
35364;SDS011;21464;48.112;11.530;2022-12-29T01:31:04;3.50;;;2.60;;
35364;SDS011;21464;48.112;11.530;2022-12-29T01:33:30;2.67;;;2.20;;
35364;SDS011;21464;48.112;11.530;2022-12-29T01:35:59;3.57;;;2.73;;
35364;SDS011;21464;48.112;11.530;2022-12-29T01:38:25;3.77;;;3.03;;
35364;SDS011;21464;48.112;11.530;2022-12-29T01:40:51;2.00;;;1.90;;
35364;SDS011;21464;48.112;11.530;2022-12-29T01:43:17;3.13;;;2.47;;
35364;SDS011;21464;48.112;11.530;2022-12-29T01:45:51;2.43;;;2.23;;
35364;SDS011;21464;48.112;11.530;2022-12-29T01:48:19;2.10;;;1.93;;
35364;SDS011;21464;48.112;11.530;2022-12-29T01:50:52;1.97;;;1.80;;
35364;SDS011;21464;48.112;11.530;2022-12-29T01:53:26;1.43;;;1.33;;
35364;SDS011;21464;48.112;11.530;2022-12-29T01:55:54;3.53;;;1.73;;
35364;SDS011;21464;48.112;11.530;2022-12-29T01:58:22;2.10;;;1.70;;
35364;SDS011;21464;48.112;11.530;2022-12-29T02:00:50;1.80;;;1.70;;
35364;SDS011;21464;48.112;11.530;2022-12-29T02:03:16;1.57;;;1.40;;
35364;SDS011;21464;48.112;11.530;2022-12-29T02:05:57;2.73;;;1.60;;
35364;SDS011;21464;48.112;11.530;2022-12-29T02:08:24;1.90;;;1.30;;
35364;SDS011;21464;48.112;11.530;2022-12-29T02:10:51;1.07;;;1.07;;
35364;SDS011;21464;48.112;11.530;2022-12-29T02:13:23;1.27;;;1.17;;
35364;SDS011;21464;48.112;11.530;2022-12-29T02:18:26;1.23;;;1.23;;
35364;SDS011;21464;48.112;11.530;2022-12-29T02:23:34;1.00;;;1.00;;
35364;SDS011;21464;48.112;11.530;2022-12-29T02:31:10;0.93;;;0.93;;
35364;SDS011;21464;48.112;11.530;2022-12-29T02:38:50;1.00;;;1.00;;
35364;SDS011;21464;48.112;11.530;2022-12-29T02:41:31;1.20;;;1.10;;
35364;SDS011;21464;48.112;11.530;2022-12-29T02:50:01;0.90;;;0.90;;
35364;SDS011;21464;48.112;11.530;2022-12-29T02:52:28;0.90;;;0.90;;
35364;SDS011;21464;48.112;11.530;2022-12-29T02:54:56;1.20;;;1.03;;
35364;SDS011;21464;48.112;11.530;2022-12-29T02:59:48;0.97;;;0.97;;
35364;SDS011;21464;48.112;11.530;2022-12-29T03:05:04;1.10;;;1.10;;
35364;SDS011;21464;48.112;11.530;2022-12-29T03:15:43;1.50;;;1.30;;
35364;SDS011;21464;48.112;11.530;2022-12-29T03:18:28;1.00;;;1.00;;
35364;SDS011;21464;48.112;11.530;2022-12-29T03:21:02;1.30;;;1.30;;
35364;SDS011;21464;48.112;11.530;2022-12-29T03:23:30;1.33;;;1.20;;
35364;SDS011;21464;48.112;11.530;2022-12-29T03:25:58;2.57;;;1.13;;
35364;SDS011;21464;48.112;11.530;2022-12-29T03:28:32;1.10;;;1.10;;
35364;SDS011;21464;48.112;11.530;2022-12-29T03:31:01;1.07;;;1.07;;
35364;SDS011;21464;48.112;11.530;2022-12-29T03:33:28;1.10;;;1.10;;
35364;SDS011;21464;48.112;11.530;2022-12-29T03:35:59;1.10;;;1.10;;
35364;SDS011;21464;48.112;11.530;2022-12-29T03:38:34;0.87;;;0.87;;
35364;SDS011;21464;48.112;11.530;2022-12-29T03:41:00;1.03;;;1.03;;
35364;SDS011;21464;48.112;11.530;2022-12-29T03:43:29;2.33;;;1.20;;
35364;SDS011;21464;48.112;11.530;2022-12-29T03:45:55;1.10;;;1.10;;
35364;SDS011;21464;48.112;11.530;2022-12-29T03:48:21;1.43;;;1.33;;
35364;SDS011;21464;48.112;11.530;2022-12-29T03:50:49;1.77;;;1.07;;
35364;SDS011;21464;48.112;11.530;2022-12-29T03:53:15;1.00;;;1.00;;
35364;SDS011;21464;48.112;11.530;2022-12-29T03:55:41;0.93;;;0.93;;
35364;SDS011;21464;48.112;11.530;2022-12-29T03:58:08;1.10;;;1.10;;
35364;SDS011;21464;48.112;11.530;2022-12-29T04:01:10;1.30;;;1.20;;
35364;SDS011;21464;48.112;11.530;2022-12-29T04:03:37;1.10;;;1.10;;
35364;SDS011;21464;48.112;11.530;2022-12-29T04:06:04;1.03;;;1.03;;
35364;SDS011;21464;48.112;11.530;2022-12-29T04:08:38;1.33;;;1.17;;
35364;SDS011;21464;48.112;11.530;2022-12-29T04:11:05;1.00;;;1.00;;
35364;SDS011;21464;48.112;11.530;2022-12-29T04:13:31;1.07;;;1.07;;
35364;SDS011;21464;48.112;11.530;2022-12-29T04:15:57;1.93;;;1.10;;
35364;SDS011;21464;48.112;11.530;2022-12-29T04:18:23;1.03;;;1.03;;
35364;SDS011;21464;48.112;11.530;2022-12-29T04:20:49;1.10;;;1.10;;
35364;SDS011;21464;48.112;11.530;2022-12-29T04:23:35;1.00;;;1.00;;
35364;SDS011;21464;48.112;11.530;2022-12-29T04:26:03;1.27;;;1.17;;
35364;SDS011;21464;48.112;11.530;2022-12-29T04:28:30;0.90;;;0.90;;
35364;SDS011;21464;48.112;11.530;2022-12-29T04:31:28;1.00;;;1.00;;
35364;SDS011;21464;48.112;11.530;2022-12-29T04:33:54;1.00;;;1.00;;
35364;SDS011;21464;48.112;11.530;2022-12-29T04:36:20;1.13;;;1.13;;
35364;SDS011;21464;48.112;11.530;2022-12-29T04:38:46;1.10;;;1.10;;
35364;SDS011;21464;48.112;11.530;2022-12-29T04:41:12;1.00;;;1.00;;
35364;SDS011;21464;48.112;11.530;2022-12-29T04:43:39;1.20;;;1.20;;
35364;SDS011;21464;48.112;11.530;2022-12-29T04:46:23;1.13;;;1.13;;
35364;SDS011;21464;48.112;11.530;2022-12-29T04:48:58;0.90;;;0.90;;
35364;SDS011;21464;48.112;11.530;2022-12-29T04:51:38;1.30;;;1.20;;
35364;SDS011;21464;48.112;11.530;2022-12-29T04:54:07;1.23;;;1.20;;
35364;SDS011;21464;48.112;11.530;2022-12-29T04:56:33;1.10;;;1.00;;
35364;SDS011;21464;48.112;11.530;2022-12-29T04:58:59;1.20;;;1.07;;
35364;SDS011;21464;48.112;11.530;2022-12-29T05:01:26;1.00;;;1.00;;
35364;SDS011;21464;48.112;11.530;2022-12-29T05:03:52;1.00;;;1.00;;
35364;SDS011;21464;48.112;11.530;2022-12-29T05:06:18;1.20;;;1.20;;
35364;SDS011;21464;48.112;11.530;2022-12-29T05:08:45;1.10;;;1.10;;
35364;SDS011;21464;48.112;11.530;2022-12-29T05:11:11;1.73;;;1.10;;
35364;SDS011;21464;48.112;11.530;2022-12-29T05:13:37;1.30;;;1.20;;
35364;SDS011;21464;48.112;11.530;2022-12-29T05:16:03;1.10;;;1.10;;
35364;SDS011;21464;48.112;11.530;2022-12-29T05:18:29;1.13;;;1.10;;
35364;SDS011;21464;48.112;11.530;2022-12-29T05:20:57;1.00;;;1.00;;
35364;SDS011;21464;48.112;11.530;2022-12-29T05:23:23;1.00;;;1.00;;
35364;SDS011;21464;48.112;11.530;2022-12-29T05:25:55;1.10;;;1.10;;
35364;SDS011;21464;48.112;11.530;2022-12-29T05:28:41;1.10;;;1.00;;
35364;SDS011;21464;48.112;11.530;2022-12-29T05:31:11;1.40;;;1.00;;
35364;SDS011;21464;48.112;11.530;2022-12-29T05:33:38;1.80;;;1.70;;
35364;SDS011;21464;48.112;11.530;2022-12-29T05:36:05;4.63;;;3.07;;
35364;SDS011;21464;48.112;11.530;2022-12-29T05:38:32;1.60;;;1.40;;
35364;SDS011;21464;48.112;11.530;2022-12-29T05:40:58;1.87;;;1.70;;
35364;SDS011;21464;48.112;11.530;2022-12-29T05:43:46;2.40;;;2.17;;
35364;SDS011;21464;48.112;11.530;2022-12-29T05:46:22;1.00;;;0.90;;
35364;SDS011;21464;48.112;11.530;2022-12-29T05:49:11;1.40;;;1.30;;
35364;SDS011;21464;48.112;11.530;2022-12-29T05:51:56;1.20;;;1.10;;
35364;SDS011;21464;48.112;11.530;2022-12-29T05:54:22;1.10;;;1.10;;
35364;SDS011;21464;48.112;11.530;2022-12-29T05:56:48;1.30;;;1.20;;
35364;SDS011;21464;48.112;11.530;2022-12-29T05:59:14;1.30;;;1.20;;
35364;SDS011;21464;48.112;11.530;2022-12-29T06:01:41;1.30;;;1.20;;
35364;SDS011;21464;48.112;11.530;2022-12-29T06:04:07;1.20;;;1.10;;
35364;SDS011;21464;48.112;11.530;2022-12-29T06:06:33;1.40;;;1.30;;
35364;SDS011;21464;48.112;11.530;2022-12-29T06:08:59;1.00;;;1.00;;
35364;SDS011;21464;48.112;11.530;2022-12-29T06:11:25;1.70;;;1.40;;
35364;SDS011;21464;48.112;11.530;2022-12-29T06:13:54;5.93;;;4.33;;
35364;SDS011;21464;48.112;11.530;2022-12-29T06:16:22;7.93;;;5.63;;
35364;SDS011;21464;48.112;11.530;2022-12-29T06:18:52;2.70;;;2.20;;
35364;SDS011;21464;48.112;11.530;2022-12-29T06:21:18;9.63;;;5.77;;
35364;SDS011;21464;48.112;11.530;2022-12-29T06:23:45;4.17;;;3.03;;
35364;SDS011;21464;48.112;11.530;2022-12-29T06:26:11;4.20;;;3.23;;
35364;SDS011;21464;48.112;11.530;2022-12-29T06:28:37;4.40;;;3.10;;
35364;SDS011;21464;48.112;11.530;2022-12-29T06:31:03;4.17;;;2.10;;
35364;SDS011;21464;48.112;11.530;2022-12-29T06:33:29;1.77;;;1.63;;
35364;SDS011;21464;48.112;11.530;2022-12-29T06:35:56;1.40;;;1.30;;
35364;SDS011;21464;48.112;11.530;2022-12-29T06:38:22;1.40;;;1.30;;
35364;SDS011;21464;48.112;11.530;2022-12-29T06:40:48;5.03;;;1.30;;
35364;SDS011;21464;48.112;11.530;2022-12-29T06:43:38;1.20;;;1.10;;
35364;SDS011;21464;48.112;11.530;2022-12-29T06:46:09;1.20;;;1.20;;
35364;SDS011;21464;48.112;11.530;2022-12-29T06:48:35;1.50;;;1.33;;
35364;SDS011;21464;48.112;11.530;2022-12-29T06:51:00;1.40;;;1.30;;
35364;SDS011;21464;48.112;11.530;2022-12-29T06:53:26;1.00;;;1.00;;
35364;SDS011;21464;48.112;11.530;2022-12-29T06:55:52;1.27;;;1.17;;
35364;SDS011;21464;48.112;11.530;2022-12-29T06:58:18;1.37;;;1.03;;
35364;SDS011;21464;48.112;11.530;2022-12-29T07:00:44;1.43;;;1.30;;
35364;SDS011;21464;48.112;11.530;2022-12-29T07:03:10;1.50;;;1.40;;
35364;SDS011;21464;48.112;11.530;2022-12-29T07:05:36;1.30;;;1.20;;
35364;SDS011;21464;48.112;11.530;2022-12-29T07:08:02;3.07;;;2.27;;
35364;SDS011;21464;48.112;11.530;2022-12-29T07:10:28;2.63;;;2.10;;
35364;SDS011;21464;48.112;11.530;2022-12-29T07:12:54;1.70;;;1.40;;
35364;SDS011;21464;48.112;11.530;2022-12-29T07:15:20;1.90;;;1.70;;
35364;SDS011;21464;48.112;11.530;2022-12-29T07:17:46;1.50;;;1.40;;
35364;SDS011;21464;48.112;11.530;2022-12-29T07:20:12;1.80;;;1.70;;
35364;SDS011;21464;48.112;11.530;2022-12-29T07:22:38;2.60;;;1.60;;
35364;SDS011;21464;48.112;11.530;2022-12-29T07:25:04;1.60;;;1.50;;
35364;SDS011;21464;48.112;11.530;2022-12-29T07:27:30;2.53;;;2.17;;
35364;SDS011;21464;48.112;11.530;2022-12-29T07:29:56;3.53;;;1.60;;
35364;SDS011;21464;48.112;11.530;2022-12-29T07:32:22;1.60;;;1.50;;
35364;SDS011;21464;48.112;11.530;2022-12-29T07:34:48;2.93;;;1.37;;
35364;SDS011;21464;48.112;11.530;2022-12-29T07:37:17;2.30;;;1.20;;
35364;SDS011;21464;48.112;11.530;2022-12-29T07:39:43;2.07;;;1.50;;
35364;SDS011;21464;48.112;11.530;2022-12-29T07:42:09;1.20;;;1.20;;
35364;SDS011;21464;48.112;11.530;2022-12-29T07:44:42;1.17;;;1.10;;
35364;SDS011;21464;48.112;11.530;2022-12-29T07:47:37;1.47;;;1.30;;
35364;SDS011;21464;48.112;11.530;2022-12-29T07:50:03;1.20;;;1.20;;
35364;SDS011;21464;48.112;11.530;2022-12-29T07:52:29;1.30;;;1.20;;
35364;SDS011;21464;48.112;11.530;2022-12-29T07:54:55;1.40;;;1.30;;
35364;SDS011;21464;48.112;11.530;2022-12-29T07:57:21;2.00;;;1.30;;
35364;SDS011;21464;48.112;11.530;2022-12-29T07:59:47;1.00;;;1.00;;
35364;SDS011;21464;48.112;11.530;2022-12-29T08:02:13;1.27;;;1.27;;
35364;SDS011;21464;48.112;11.530;2022-12-29T08:04:38;1.40;;;1.30;;
35364;SDS011;21464;48.112;11.530;2022-12-29T08:07:04;2.70;;;1.30;;
35364;SDS011;21464;48.112;11.530;2022-12-29T08:09:30;1.40;;;1.30;;
35364;SDS011;21464;48.112;11.530;2022-12-29T08:11:56;4.10;;;1.30;;
35364;SDS011;21464;48.112;11.530;2022-12-29T08:14:22;1.20;;;1.20;;
35364;SDS011;21464;48.112;11.530;2022-12-29T08:16:48;1.27;;;1.23;;
35364;SDS011;21464;48.112;11.530;2022-12-29T08:19:14;1.40;;;1.30;;
35364;SDS011;21464;48.112;11.530;2022-12-29T08:21:40;1.37;;;1.37;;
35364;SDS011;21464;48.112;11.530;2022-12-29T08:24:06;1.70;;;1.60;;
35364;SDS011;21464;48.112;11.530;2022-12-29T08:26:32;1.83;;;1.37;;
35364;SDS011;21464;48.112;11.530;2022-12-29T08:28:58;1.67;;;1.20;;
35364;SDS011;21464;48.112;11.530;2022-12-29T08:31:24;1.90;;;1.43;;
35364;SDS011;21464;48.112;11.530;2022-12-29T08:33:50;1.90;;;1.80;;
35364;SDS011;21464;48.112;11.530;2022-12-29T08:36:16;1.50;;;1.40;;
35364;SDS011;21464;48.112;11.530;2022-12-29T08:38:42;2.33;;;2.13;;
35364;SDS011;21464;48.112;11.530;2022-12-29T08:41:08;2.03;;;1.60;;
35364;SDS011;21464;48.112;11.530;2022-12-29T08:43:34;1.70;;;1.60;;
35364;SDS011;21464;48.112;11.530;2022-12-29T08:46:00;2.73;;;1.90;;
35364;SDS011;21464;48.112;11.530;2022-12-29T08:48:26;1.83;;;1.67;;
35364;SDS011;21464;48.112;11.530;2022-12-29T08:50:52;1.43;;;1.33;;
35364;SDS011;21464;48.112;11.530;2022-12-29T08:53:18;2.30;;;1.40;;
35364;SDS011;21464;48.112;11.530;2022-12-29T08:55:45;1.90;;;1.70;;
35364;SDS011;21464;48.112;11.530;2022-12-29T08:58:12;1.60;;;1.50;;
35364;SDS011;21464;48.112;11.530;2022-12-29T09:00:41;4.03;;;1.70;;
35364;SDS011;21464;48.112;11.530;2022-12-29T09:03:07;1.73;;;1.50;;
35364;SDS011;21464;48.112;11.530;2022-12-29T09:05:32;1.87;;;1.70;;
35364;SDS011;21464;48.112;11.530;2022-12-29T09:07:58;1.43;;;1.40;;
35364;SDS011;21464;48.112;11.530;2022-12-29T09:10:24;1.27;;;1.27;;
35364;SDS011;21464;48.112;11.530;2022-12-29T09:12:50;1.27;;;1.17;;
35364;SDS011;21464;48.112;11.530;2022-12-29T09:15:16;1.60;;;1.50;;
35364;SDS011;21464;48.112;11.530;2022-12-29T09:17:42;1.73;;;1.50;;
35364;SDS011;21464;48.112;11.530;2022-12-29T09:20:12;1.77;;;1.50;;
35364;SDS011;21464;48.112;11.530;2022-12-29T09:22:38;1.53;;;1.43;;
35364;SDS011;21464;48.112;11.530;2022-12-29T09:25:04;1.23;;;1.20;;
35364;SDS011;21464;48.112;11.530;2022-12-29T09:27:30;1.53;;;1.20;;
35364;SDS011;21464;48.112;11.530;2022-12-29T09:29:56;1.57;;;1.47;;
35364;SDS011;21464;48.112;11.530;2022-12-29T09:32:22;1.87;;;1.60;;
35364;SDS011;21464;48.112;11.530;2022-12-29T09:34:48;2.07;;;1.67;;
35364;SDS011;21464;48.112;11.530;2022-12-29T09:37:14;2.00;;;1.80;;
35364;SDS011;21464;48.112;11.530;2022-12-29T09:39:40;1.60;;;1.50;;
35364;SDS011;21464;48.112;11.530;2022-12-29T09:42:08;1.67;;;1.50;;
35364;SDS011;21464;48.112;11.530;2022-12-29T09:47:11;1.23;;;1.13;;
35364;SDS011;21464;48.112;11.530;2022-12-29T09:52:11;4.17;;;1.10;;
35364;SDS011;21464;48.112;11.530;2022-12-29T09:54:41;1.60;;;1.27;;
35364;SDS011;21464;48.112;11.530;2022-12-29T09:57:14;1.37;;;1.27;;
35364;SDS011;21464;48.112;11.530;2022-12-29T09:59:41;1.27;;;1.17;;
35364;SDS011;21464;48.112;11.530;2022-12-29T10:04:43;1.20;;;1.10;;
35364;SDS011;21464;48.112;11.530;2022-12-29T10:08:12;0.90;;;0.90;;
35364;SDS011;21464;48.112;11.530;2022-12-29T10:12:58;2.70;;;1.20;;
35364;SDS011;21464;48.112;11.530;2022-12-29T10:18:27;1.40;;;1.30;;
35364;SDS011;21464;48.112;11.530;2022-12-29T10:20:55;0.97;;;0.97;;
35364;SDS011;21464;48.112;11.530;2022-12-29T10:25:53;2.30;;;1.47;;
35364;SDS011;21464;48.112;11.530;2022-12-29T10:28:21;1.30;;;1.20;;
35364;SDS011;21464;48.112;11.530;2022-12-29T10:30:47;2.43;;;1.20;;
35364;SDS011;21464;48.112;11.530;2022-12-29T10:33:19;1.30;;;1.20;;
35364;SDS011;21464;48.112;11.530;2022-12-29T10:35:45;1.93;;;1.70;;
35364;SDS011;21464;48.112;11.530;2022-12-29T10:40:39;1.47;;;1.23;;
35364;SDS011;21464;48.112;11.530;2022-12-29T10:43:12;1.67;;;1.40;;
35364;SDS011;21464;48.112;11.530;2022-12-29T10:45:41;1.90;;;1.70;;
35364;SDS011;21464;48.112;11.530;2022-12-29T10:48:12;1.40;;;1.30;;
35364;SDS011;21464;48.112;11.530;2022-12-29T10:50:44;1.50;;;1.40;;
35364;SDS011;21464;48.112;11.530;2022-12-29T10:53:12;1.70;;;1.60;;
35364;SDS011;21464;48.112;11.530;2022-12-29T10:55:41;2.30;;;2.10;;
35364;SDS011;21464;48.112;11.530;2022-12-29T10:58:09;2.13;;;1.93;;
35364;SDS011;21464;48.112;11.530;2022-12-29T11:00:37;3.60;;;2.60;;
35364;SDS011;21464;48.112;11.530;2022-12-29T11:08:20;3.63;;;2.13;;
35364;SDS011;21464;48.112;11.530;2022-12-29T11:10:47;2.10;;;1.90;;
35364;SDS011;21464;48.112;11.530;2022-12-29T11:13:26;2.83;;;2.10;;
35364;SDS011;21464;48.112;11.530;2022-12-29T11:15:52;1.70;;;1.60;;
35364;SDS011;21464;48.112;11.530;2022-12-29T11:20:47;2.17;;;1.97;;
35364;SDS011;21464;48.112;11.530;2022-12-29T11:23:27;2.03;;;1.63;;
35364;SDS011;21464;48.112;11.530;2022-12-29T11:26:14;1.50;;;1.37;;
35364;SDS011;21464;48.112;11.530;2022-12-29T11:28:41;1.90;;;1.63;;
35364;SDS011;21464;48.112;11.530;2022-12-29T11:31:08;2.17;;;1.97;;
35364;SDS011;21464;48.112;11.530;2022-12-29T11:33:35;1.63;;;1.47;;
35364;SDS011;21464;48.112;11.530;2022-12-29T11:36:13;1.97;;;1.30;;
35364;SDS011;21464;48.112;11.530;2022-12-29T11:38:42;4.77;;;1.53;;
35364;SDS011;21464;48.112;11.530;2022-12-29T11:41:11;1.93;;;1.40;;
35364;SDS011;21464;48.112;11.530;2022-12-29T11:43:38;1.30;;;1.20;;
35364;SDS011;21464;48.112;11.530;2022-12-29T11:46:04;1.10;;;1.10;;
35364;SDS011;21464;48.112;11.530;2022-12-29T11:48:40;1.60;;;1.50;;
35364;SDS011;21464;48.112;11.530;2022-12-29T11:51:07;1.80;;;1.70;;
35364;SDS011;21464;48.112;11.530;2022-12-29T11:56:00;5.30;;;4.80;;
35364;SDS011;21464;48.112;11.530;2022-12-29T11:58:34;4.13;;;3.38;;
35364;SDS011;21464;48.112;11.530;2022-12-29T12:01:02;2.22;;;2.00;;
35364;SDS011;21464;48.112;11.530;2022-12-29T12:03:29;2.30;;;2.10;;
35364;SDS011;21464;48.112;11.530;2022-12-29T12:05:58;1.50;;;1.40;;
35364;SDS011;21464;48.112;11.530;2022-12-29T12:08:39;1.88;;;1.70;;
35364;SDS011;21464;48.112;11.530;2022-12-29T12:11:12;2.30;;;2.10;;
35364;SDS011;21464;48.112;11.530;2022-12-29T12:16:11;2.20;;;1.48;;
35364;SDS011;21464;48.112;11.530;2022-12-29T12:18:49;2.60;;;2.40;;
35364;SDS011;21464;48.112;11.530;2022-12-29T12:23:44;1.35;;;1.25;;
35364;SDS011;21464;48.112;11.530;2022-12-29T12:26:20;1.42;;;1.33;;
35364;SDS011;21464;48.112;11.530;2022-12-29T12:28:54;1.10;;;1.10;;
35364;SDS011;21464;48.112;11.530;2022-12-29T12:33:53;1.63;;;1.10;;
35364;SDS011;21464;48.112;11.530;2022-12-29T12:36:25;1.27;;;1.00;;
35364;SDS011;21464;48.112;11.530;2022-12-29T12:38:57;1.08;;;0.80;;
35364;SDS011;21464;48.112;11.530;2022-12-29T12:46:48;2.83;;;0.80;;
35364;SDS011;21464;48.112;11.530;2022-12-29T12:52:13;0.93;;;0.90;;
35364;SDS011;21464;48.112;11.530;2022-12-29T12:57:22;1.23;;;1.00;;
35364;SDS011;21464;48.112;11.530;2022-12-29T13:12:45;1.60;;;1.10;;
35364;SDS011;21464;48.112;11.530;2022-12-29T13:15:20;1.13;;;1.02;;
35364;SDS011;21464;48.112;11.530;2022-12-29T13:20:42;1.23;;;1.15;;
35364;SDS011;21464;48.112;11.530;2022-12-29T13:28:28;2.05;;;1.23;;
35364;SDS011;21464;48.112;11.530;2022-12-29T13:36:24;2.55;;;1.60;;
35364;SDS011;21464;48.112;11.530;2022-12-29T13:38:53;1.60;;;1.15;;
35364;SDS011;21464;48.112;11.530;2022-12-29T13:43:50;1.60;;;1.50;;
35364;SDS011;21464;48.112;11.530;2022-12-29T13:46:22;1.10;;;1.10;;
35364;SDS011;21464;48.112;11.530;2022-12-29T13:48:51;1.52;;;0.90;;
35364;SDS011;21464;48.112;11.530;2022-12-29T13:51:18;3.47;;;1.33;;
35364;SDS011;21464;48.112;11.530;2022-12-29T14:01:41;1.23;;;1.13;;
35364;SDS011;21464;48.112;11.530;2022-12-29T14:04:11;1.10;;;1.00;;
35364;SDS011;21464;48.112;11.530;2022-12-29T14:06:37;1.20;;;1.10;;
35364;SDS011;21464;48.112;11.530;2022-12-29T14:09:06;1.00;;;1.00;;
35364;SDS011;21464;48.112;11.530;2022-12-29T14:11:52;0.93;;;0.90;;
35364;SDS011;21464;48.112;11.530;2022-12-29T14:14:22;1.67;;;1.58;;
35364;SDS011;21464;48.112;11.530;2022-12-29T14:16:49;1.48;;;1.10;;
35364;SDS011;21464;48.112;11.530;2022-12-29T14:22:20;3.13;;;2.43;;
35364;SDS011;21464;48.112;11.530;2022-12-29T14:24:43;10.20;;;7.30;;
35364;SDS011;21464;48.112;11.530;2022-12-29T14:34:49;5.35;;;3.83;;
35364;SDS011;21464;48.112;11.530;2022-12-29T14:37:23;7.40;;;5.43;;
35364;SDS011;21464;48.112;11.530;2022-12-29T14:39:50;5.53;;;3.60;;
35364;SDS011;21464;48.112;11.530;2022-12-29T14:42:27;7.03;;;4.57;;
35364;SDS011;21464;48.112;11.530;2022-12-29T14:44:57;5.50;;;3.53;;
35364;SDS011;21464;48.112;11.530;2022-12-29T14:50:02;3.95;;;3.00;;
35364;SDS011;21464;48.112;11.530;2022-12-29T14:52:29;9.20;;;6.10;;
35364;SDS011;21464;48.112;11.530;2022-12-29T14:54:57;8.27;;;5.47;;
35364;SDS011;21464;48.112;11.530;2022-12-29T14:57:25;5.37;;;3.17;;
35364;SDS011;21464;48.112;11.530;2022-12-29T14:59:53;2.67;;;2.27;;
35364;SDS011;21464;48.112;11.530;2022-12-29T15:02:20;2.37;;;1.80;;
35364;SDS011;21464;48.112;11.530;2022-12-29T15:04:47;3.37;;;2.10;;
35364;SDS011;21464;48.112;11.530;2022-12-29T15:07:13;3.10;;;2.33;;
35364;SDS011;21464;48.112;11.530;2022-12-29T15:09:44;2.50;;;2.00;;
35364;SDS011;21464;48.112;11.530;2022-12-29T15:14:57;3.08;;;1.98;;
35364;SDS011;21464;48.112;11.530;2022-12-29T15:17:27;3.30;;;1.90;;
35364;SDS011;21464;48.112;11.530;2022-12-29T15:19:54;2.97;;;2.10;;
35364;SDS011;21464;48.112;11.530;2022-12-29T15:22:20;1.97;;;1.77;;
35364;SDS011;21464;48.112;11.530;2022-12-29T15:24:46;3.27;;;1.80;;
35364;SDS011;21464;48.112;11.530;2022-12-29T15:27:13;2.72;;;2.00;;
35364;SDS011;21464;48.112;11.530;2022-12-29T15:29:40;4.45;;;3.10;;
35364;SDS011;21464;48.112;11.530;2022-12-29T15:32:25;5.20;;;3.70;;
35364;SDS011;21464;48.112;11.530;2022-12-29T15:34:56;2.70;;;2.50;;
35364;SDS011;21464;48.112;11.530;2022-12-29T15:39:48;2.15;;;2.05;;
35364;SDS011;21464;48.112;11.530;2022-12-29T15:42:32;2.40;;;1.90;;
35364;SDS011;21464;48.112;11.530;2022-12-29T15:45:03;2.73;;;1.90;;
35364;SDS011;21464;48.112;11.530;2022-12-29T15:47:30;2.15;;;1.67;;
35364;SDS011;21464;48.112;11.530;2022-12-29T15:50:01;1.83;;;1.73;;
35364;SDS011;21464;48.112;11.530;2022-12-29T15:52:29;2.33;;;2.00;;
35364;SDS011;21464;48.112;11.530;2022-12-29T15:54:56;1.98;;;1.80;;
35364;SDS011;21464;48.112;11.530;2022-12-29T15:59:49;2.40;;;1.90;;
35364;SDS011;21464;48.112;11.530;2022-12-29T16:02:15;3.33;;;2.03;;
35364;SDS011;21464;48.112;11.530;2022-12-29T16:04:42;2.17;;;1.97;;
35364;SDS011;21464;48.112;11.530;2022-12-29T16:09:57;2.30;;;2.10;;
35364;SDS011;21464;48.112;11.530;2022-12-29T16:12:24;2.63;;;2.13;;
35364;SDS011;21464;48.112;11.530;2022-12-29T16:15:01;1.97;;;1.87;;
35364;SDS011;21464;48.112;11.530;2022-12-29T16:17:30;3.00;;;1.80;;
35364;SDS011;21464;48.112;11.530;2022-12-29T16:19:57;1.97;;;1.83;;
35364;SDS011;21464;48.112;11.530;2022-12-29T16:22:34;2.28;;;2.05;;
35364;SDS011;21464;48.112;11.530;2022-12-29T16:27:38;2.77;;;2.30;;
35364;SDS011;21464;48.112;11.530;2022-12-29T16:30:07;6.72;;;5.03;;
35364;SDS011;21464;48.112;11.530;2022-12-29T16:32:48;3.13;;;2.45;;
35364;SDS011;21464;48.112;11.530;2022-12-29T16:35:20;3.00;;;2.70;;
35364;SDS011;21464;48.112;11.530;2022-12-29T16:37:46;3.50;;;3.20;;
35364;SDS011;21464;48.112;11.530;2022-12-29T16:42:55;5.67;;;4.70;;
35364;SDS011;21464;48.112;11.530;2022-12-29T16:45:38;5.13;;;2.65;;
35364;SDS011;21464;48.112;11.530;2022-12-29T16:48:21;3.78;;;2.10;;
35364;SDS011;21464;48.112;11.530;2022-12-29T16:50:49;4.22;;;2.33;;
35364;SDS011;21464;48.112;11.530;2022-12-29T16:55:50;1.83;;;1.70;;
35364;SDS011;21464;48.112;11.530;2022-12-29T16:58:21;2.40;;;2.20;;
35364;SDS011;21464;48.112;11.530;2022-12-29T17:00:48;2.30;;;1.85;;
35364;SDS011;21464;48.112;11.530;2022-12-29T17:03:14;3.03;;;1.98;;
35364;SDS011;21464;48.112;11.530;2022-12-29T17:05:40;2.33;;;2.00;;
35364;SDS011;21464;48.112;11.530;2022-12-29T17:08:19;2.30;;;2.10;;
35364;SDS011;21464;48.112;11.530;2022-12-29T17:10:49;2.13;;;1.92;;
35364;SDS011;21464;48.112;11.530;2022-12-29T17:13:34;1.83;;;1.73;;
35364;SDS011;21464;48.112;11.530;2022-12-29T17:16:00;2.50;;;2.10;;
35364;SDS011;21464;48.112;11.530;2022-12-29T17:18:26;2.00;;;1.80;;